Time;durP1;ratioP1;P1;durP2;ratioP2;P2;SDS_P1;SDS_P2;PMS_P1;PMS_P2;Temp;Humidity;BMP_temperature;BMP_pressure;BME280_temperature;BME280_humidity;BME280_pressure;Samples;Min_cycle;Max_cycle;Signal;HPM_P1;HPM_P2
2023/11/16 00:00:32;;;;;;;29.20;17.50;;;;;;;8.51;100.00;99897.62;105965;1251;60367;-77
2023/11/16 00:03:05;;;;;;;24.80;16.70;;;;;;;8.51;100.00;99896.91;105943;1254;73625;-76
2023/11/16 00:05:35;;;;;;;26.30;16.80;;;;;;;8.51;100.00;99903.73;105965;1251;63233;-75
2023/11/16 00:08:07;;;;;;;29.90;18.10;;;;;;;8.52;100.00;99912.73;106000;1254;72529;-74
2023/11/16 00:10:34;;;;;;;28.30;18.20;;;;;;;8.52;100.00;99910.66;105852;1254;60351;-76
2023/11/16 00:13:02;;;;;;;32.80;18.80;;;;;;;8.52;100.00;99910.82;105912;1254;60572;-77
2023/11/16 00:15:32;;;;;;;28.70;17.70;;;;;;;8.52;100.00;99911.69;105986;1251;73861;-75
2023/11/16 00:18:04;;;;;;;28.30;18.00;;;;;;;8.52;100.00;99913.63;105901;1252;63896;-77
2023/11/16 00:20:37;;;;;;;28.50;17.90;;;;;;;8.50;100.00;99914.93;105907;1251;72669;-77
2023/11/16 00:23:05;;;;;;;29.20;18.70;;;;;;;8.47;100.00;99920.32;105932;1254;60939;-77
2023/11/16 00:25:32;;;;;;;27.40;18.70;;;;;;;8.44;100.00;99925.73;105895;1251;60447;-75
2023/11/16 00:27:59;;;;;;;30.80;18.90;;;;;;;8.40;100.00;99923.02;105923;1251;73833;-77
2023/11/16 00:30:27;;;;;;;25.30;17.80;;;;;;;8.35;100.00;99925.91;106019;1254;63691;-75
2023/11/16 00:32:54;;;;;;;27.50;18.40;;;;;;;8.31;100.00;99934.55;105821;1251;72546;-75
2023/11/16 00:35:21;;;;;;;27.00;18.70;;;;;;;8.26;100.00;99933.10;105880;1256;61065;-77
2023/11/16 00:37:50;;;;;;;35.60;21.00;;;;;;;8.21;100.00;99931.66;105732;1251;60543;-78
2023/11/16 00:40:17;;;;;;;31.70;20.10;;;;;;;8.19;100.00;99929.20;105832;1256;73649;-76
2023/11/16 00:42:45;;;;;;;32.60;20.30;;;;;;;8.16;100.00;99930.23;105949;1251;62274;-76
2023/11/16 00:45:12;;;;;;;33.70;21.50;;;;;;;8.14;100.00;99926.67;105845;1251;72513;-75
2023/11/16 00:47:39;;;;;;;34.60;21.70;;;;;;;8.14;100.00;99929.14;105807;1256;61195;-74
2023/11/16 00:50:07;;;;;;;36.20;22.40;;;;;;;8.13;100.00;99929.69;105889;1254;60418;-76
2023/11/16 00:52:35;;;;;;;36.70;22.80;;;;;;;8.13;100.00;99930.42;106028;1251;72412;-75
2023/11/16 00:55:04;;;;;;;37.40;22.50;;;;;;;8.12;100.00;99925.27;106047;1254;62763;-76
2023/11/16 00:57:31;;;;;;;31.20;21.50;;;;;;;8.10;100.00;99917.70;105911;1251;72634;-75
2023/11/16 00:59:58;;;;;;;33.80;22.20;;;;;;;8.07;100.00;99920.48;105808;1254;60833;-75
2023/11/16 01:02:25;;;;;;;32.10;22.10;;;;;;;8.04;100.00;99923.79;105889;1254;60409;-77
2023/11/16 01:04:52;;;;;;;28.90;21.10;;;;;;;8.01;100.00;99922.44;105993;1250;73848;-77
2023/11/16 01:07:19;;;;;;;35.20;22.10;;;;;;;7.98;100.00;99926.45;105809;1257;63937;-76
2023/11/16 01:09:46;;;;;;;33.00;21.50;;;;;;;7.96;100.00;99923.98;105878;1251;72581;-78
2023/11/16 01:12:16;;;;;;;34.50;21.50;;;;;;;7.93;100.00;99926.39;105803;1251;60934;-76
2023/11/16 01:14:44;;;;;;;35.90;20.80;;;;;;;7.93;100.00;99929.88;105915;1251;60943;-75
2023/11/16 01:17:22;;;;;;;29.00;20.10;;;;;;;7.94;100.00;99926.86;105950;1254;73756;-77
2023/11/16 01:19:51;;;;;;;32.30;20.10;;;;;;;7.94;100.00;99925.29;106210;1254;64010;-75
2023/11/16 01:22:21;;;;;;;31.20;19.70;;;;;;;7.96;100.00;99924.66;105967;1251;71280;-76
2023/11/16 01:24:51;;;;;;;29.80;19.70;;;;;;;7.98;100.00;99923.67;105998;1256;60825;-76
2023/11/16 01:27:19;;;;;;;28.10;19.20;;;;;;;8.01;100.00;99928.55;106076;1254;60479;-75
2023/11/16 01:29:46;;;;;;;28.00;18.00;;;;;;;8.03;100.00;99931.55;106073;1251;71436;-76
2023/11/16 01:32:14;;;;;;;24.50;17.50;;;;;;;8.05;100.00;99934.01;105948;1254;63843;-77
2023/11/16 01:34:44;;;;;;;24.20;17.70;;;;;;;8.07;100.00;99934.97;106567;1251;72688;-74
2023/11/16 01:37:12;;;;;;;28.50;19.60;;;;;;;8.07;100.00;99937.02;107103;1250;60978;-73
2023/11/16 01:39:39;;;;;;;31.20;19.10;;;;;;;8.09;100.00;99938.47;107773;1251;60447;-74
2023/11/16 01:42:07;;;;;;;31.40;19.30;;;;;;;8.11;100.00;99934.18;106465;1254;72530;-77
2023/11/16 01:44:36;;;;;;;27.10;17.50;;;;;;;8.13;100.00;99926.74;106148;1251;62346;-78
2023/11/16 01:47:07;;;;;;;24.90;17.80;;;;;;;8.14;100.00;99925.48;106087;1251;71524;-76
2023/11/16 01:49:35;;;;;;;22.90;17.00;;;;;;;8.14;100.00;99925.98;105958;1251;61170;-77
2023/11/16 01:52:02;;;;;;;26.90;18.30;;;;;;;8.14;100.00;99932.09;105941;1251;60407;-76
2023/11/16 01:54:30;;;;;;;23.30;17.60;;;;;;;8.13;100.00;99937.73;105780;1257;73870;-76
2023/11/16 01:56:58;;;;;;;26.30;19.00;;;;;;;8.12;100.00;99941.98;106069;1251;62351;-74
2023/11/16 01:59:26;;;;;;;32.30;21.60;;;;;;;8.12;100.00;99943.75;105976;1251;70234;-77
2023/11/16 02:01:54;;;;;;;31.50;23.00;;;;;;;8.12;100.00;99942.52;105981;1251;60529;-80
2023/11/16 02:04:22;;;;;;;26.30;19.60;;;;;;;8.12;100.00;99941.30;105897;1251;60431;-75
2023/11/16 02:06:49;;;;;;;26.50;20.60;;;;;;;8.13;100.00;99947.84;106047;1254;73832;-77
2023/11/16 02:09:19;;;;;;;26.00;18.80;;;;;;;8.14;100.00;99944.30;105940;1254;63709;-74
2023/11/16 02:11:45;;;;;;;24.40;18.10;;;;;;;8.15;100.00;99946.15;105884;1252;72608;-76
2023/11/16 02:14:13;;;;;;;24.60;17.00;;;;;;;8.15;100.00;99950.98;105846;1256;61100;-76
2023/11/16 02:16:40;;;;;;;25.10;16.20;;;;;;;8.14;100.00;99951.92;105924;1251;60414;-76
2023/11/16 02:19:33;;;;;;;19.40;14.80;;;;;;;8.14;100.00;99955.95;105952;1254;73638;-78
2023/11/16 02:22:03;;;;;;;20.70;15.80;;;;;;;8.14;100.00;99955.61;105828;1256;63769;-74
2023/11/16 02:24:32;;;;;;;25.00;19.10;;;;;;;8.14;100.00;99957.33;105756;1256;72684;-76
2023/11/16 02:27:00;;;;;;;20.80;15.90;;;;;;;8.15;100.00;99955.19;105944;1254;60408;-77
2023/11/16 02:29:27;;;;;;;22.40;16.00;;;;;;;8.15;100.00;99952.55;105912;1257;60478;-76
2023/11/16 02:31:54;;;;;;;20.90;15.00;;;;;;;8.15;100.00;99952.05;105980;1251;73820;-78
2023/11/16 02:34:21;;;;;;;21.70;16.40;;;;;;;8.15;100.00;99950.17;105985;1254;63685;-76
2023/11/16 02:36:48;;;;;;;22.50;15.50;;;;;;;8.15;100.00;99946.15;105982;1254;72636;-75
2023/11/16 02:39:16;;;;;;;19.00;14.80;;;;;;;8.15;100.00;99949.96;105891;1254;60447;-77
2023/11/16 02:41:45;;;;;;;20.80;15.00;;;;;;;8.15;100.00;99957.78;105995;1251;60542;-75
2023/11/16 02:44:18;;;;;;;19.90;15.40;;;;;;;8.15;100.00;99957.83;105907;1257;71374;-75
2023/11/16 02:46:47;;;;;;;23.50;16.90;;;;;;;8.14;100.00;99954.39;105971;1254;63896;-74
2023/11/16 02:49:14;;;;;;;22.80;14.70;;;;;;;8.12;100.00;99954.70;105928;1251;72645;-77
2023/11/16 02:51:42;;;;;;;20.30;16.30;;;;;;;8.10;100.00;99956.55;105882;1257;61310;-75
2023/11/16 02:54:09;;;;;;;23.00;15.80;;;;;;;8.07;100.00;99956.02;105843;1254;60322;-75
2023/11/16 02:56:36;;;;;;;20.00;15.70;;;;;;;8.04;100.00;99953.72;105890;1254;73205;-75
2023/11/16 02:59:03;;;;;;;23.80;19.40;;;;;;;8.04;100.00;99950.30;105938;1254;62323;-76
2023/11/16 03:01:32;;;;;;;28.60;19.20;;;;;;;8.04;100.00;99956.05;105791;1257;72679;-76
2023/11/16 03:03:59;;;;;;;21.80;16.60;;;;;;;8.05;100.00;99957.39;105954;1251;60526;-76
2023/11/16 03:06:26;;;;;;;23.50;16.90;;;;;;;8.04;100.00;99955.48;105872;1251;60524;-76
2023/11/16 03:08:53;;;;;;;25.90;17.20;;;;;;;8.03;100.00;99952.06;105952;1254;73936;-78
2023/11/16 03:11:22;;;;;;;22.30;16.00;;;;;;;8.03;100.00;99957.67;106053;1251;63802;-74
2023/11/16 03:13:49;;;;;;;21.00;16.60;;;;;;;8.02;100.00;99956.67;105916;1254;71210;-76
2023/11/16 03:16:17;;;;;;;25.20;17.10;;;;;;;8.01;100.00;99957.77;106169;1254;61283;-74
2023/11/16 03:18:44;;;;;;;21.80;16.60;;;;;;;8.01;100.00;99958.95;105978;1250;60330;-76
2023/11/16 03:21:11;;;;;;;23.30;17.80;;;;;;;8.02;100.00;99958.24;105984;1251;73944;-75
2023/11/16 03:23:38;;;;;;;22.90;17.90;;;;;;;8.01;100.00;99962.25;106063;1251;63850;-76
2023/11/16 03:26:06;;;;;;;23.10;17.30;;;;;;;8.01;100.00;99961.08;105886;1257;72484;-77
2023/11/16 03:28:35;;;;;;;23.00;17.20;;;;;;;8.00;100.00;99963.08;105820;1254;61161;-75
2023/11/16 03:31:06;;;;;;;23.60;17.80;;;;;;;7.99;100.00;99963.98;105876;1251;60610;-74
2023/11/16 03:33:34;;;;;;;23.10;17.40;;;;;;;7.99;100.00;99964.17;106120;1250;73779;-74
2023/11/16 03:36:03;;;;;;;22.60;18.40;;;;;;;7.99;100.00;99965.92;106170;1254;62449;-74
2023/11/16 03:38:31;;;;;;;24.70;17.70;;;;;;;8.00;100.00;99969.33;106028;1251;72758;-77
2023/11/16 03:40:58;;;;;;;22.60;16.90;;;;;;;8.01;100.00;99972.58;105864;1254;60962;-75
2023/11/16 03:43:25;;;;;;;21.50;17.70;;;;;;;8.02;100.00;99973.73;105996;1251;60510;-76
2023/11/16 03:45:52;;;;;;;26.30;17.00;;;;;;;8.03;100.00;99974.41;105942;1251;71556;-78
2023/11/16 03:48:21;;;;;;;26.90;17.30;;;;;;;8.03;100.00;99975.04;105929;1254;63666;-75
2023/11/16 03:50:49;;;;;;;20.80;17.60;;;;;;;8.04;100.00;99970.81;105917;1254;72377;-75
2023/11/16 03:53:16;;;;;;;22.60;18.00;;;;;;;8.04;100.00;99971.51;105868;1254;61061;-76
2023/11/16 03:55:44;;;;;;;25.00;17.70;;;;;;;8.04;100.00;99973.06;105988;1254;60512;-77
2023/11/16 03:58:12;;;;;;;26.80;19.40;;;;;;;8.05;100.00;99972.34;105904;1251;73862;-76
2023/11/16 04:00:39;;;;;;;24.10;17.60;;;;;;;8.04;100.00;99970.45;105921;1254;63979;-74
2023/11/16 04:03:06;;;;;;;22.60;18.80;;;;;;;8.04;100.00;99972.02;105987;1250;71497;-77
2023/11/16 04:05:33;;;;;;;24.70;17.90;;;;;;;8.05;100.00;99972.86;106015;1251;60539;-75
2023/11/16 04:08:00;;;;;;;21.80;18.50;;;;;;;8.05;100.00;99971.26;105933;1254;60414;-76
2023/11/16 04:10:29;;;;;;;22.10;17.90;;;;;;;8.06;100.00;99969.83;105822;1251;73844;-77
2023/11/16 04:12:59;;;;;;;19.00;17.00;;;;;;;8.06;100.00;99968.23;105806;1251;63409;-76
2023/11/16 04:15:28;;;;;;;25.70;18.50;;;;;;;8.07;100.00;99965.41;105898;1251;72945;-77
2023/11/16 04:17:55;;;;;;;25.00;20.00;;;;;;;8.06;100.00;99968.41;105997;1254;60931;-76
2023/11/16 04:22:44;;;;;;;28.20;20.50;;;;;;;8.03;100.00;99972.99;102692;1288;603719;-75
2023/11/16 04:25:18;;;;;;;26.70;19.80;;;;;;;7.99;100.00;99971.45;104992;1269;60876;-75
2023/11/16 04:27:47;;;;;;;28.40;20.50;;;;;;;7.98;100.00;99971.73;105062;1265;60093;-76
2023/11/16 04:30:16;;;;;;;30.20;19.00;;;;;;;7.97;100.00;99973.36;105383;1266;73103;-76
2023/11/16 04:32:45;;;;;;;34.20;24.00;;;;;;;7.96;100.00;99975.45;104991;1269;63957;-76
2023/11/16 04:35:15;;;;;;;31.00;21.90;;;;;;;7.96;100.00;99978.96;105132;1261;209583;-75
2023/11/16 04:37:42;;;;;;;27.40;21.00;;;;;;;7.93;100.00;99983.11;105225;1264;59716;-75
2023/11/16 04:40:13;;;;;;;28.70;22.10;;;;;;;7.90;100.00;99992.52;105198;1264;59625;-76
2023/11/16 04:42:43;;;;;;;32.40;22.90;;;;;;;7.85;100.00;99996.98;105244;1264;72238;-77
2023/11/16 04:45:14;;;;;;;35.50;24.50;;;;;;;7.81;100.00;100000.05;105230;1267;63867;-75
2023/11/16 04:47:44;;;;;;;28.40;21.50;;;;;;;7.77;100.00;100005.66;105250;1264;72582;-76
2023/11/16 04:50:13;;;;;;;25.90;20.40;;;;;;;7.74;100.00;100013.34;105282;1267;59972;-75
2023/11/16 04:52:41;;;;;;;27.80;21.30;;;;;;;7.72;100.00;100012.40;105381;1263;59649;-76
2023/11/16 04:55:08;;;;;;;29.80;21.30;;;;;;;7.72;100.00;100020.06;105281;1264;72251;-77
2023/11/16 04:57:39;;;;;;;31.30;22.90;;;;;;;7.73;100.00;100019.98;105383;1260;62640;-77
2023/11/16 05:00:10;;;;;;;33.50;22.80;;;;;;;7.77;100.00;100024.11;105694;1260;72706;-76
2023/11/16 05:02:38;;;;;;;33.10;24.80;;;;;;;7.81;100.00;100025.77;105551;1256;59812;-76
2023/11/16 05:05:05;;;;;;;41.40;28.20;;;;;;;7.84;100.00;100023.53;105591;1260;60143;-76
2023/11/16 05:07:32;;;;;;;43.10;29.10;;;;;;;7.85;100.00;100023.65;105355;1263;73442;-77
2023/11/16 05:09:59;;;;;;;37.90;28.40;;;;;;;7.87;100.00;100018.28;105554;1259;62619;-77
2023/11/16 05:12:28;;;;;;;34.50;23.60;;;;;;;7.88;100.00;100016.84;105615;1261;72770;-76
2023/11/16 05:14:56;;;;;;;35.00;23.60;;;;;;;7.88;100.00;100020.11;105834;1257;60935;-78
2023/11/16 05:17:23;;;;;;;30.00;22.50;;;;;;;7.88;100.00;100024.31;106432;1253;60342;-75
2023/11/16 05:19:50;;;;;;;27.60;20.60;;;;;;;7.88;100.00;100027.12;107052;1254;73088;-76
2023/11/16 05:22:17;;;;;;;26.10;20.90;;;;;;;7.87;100.00;100027.17;106980;1255;62357;-76
2023/11/16 05:24:46;;;;;;;30.60;22.60;;;;;;;7.87;100.00;100028.75;106092;1257;72654;-73
2023/11/16 05:27:18;;;;;;;23.30;19.90;;;;;;;7.87;100.00;100033.08;105916;1257;60969;-75
2023/11/16 05:29:45;;;;;;;29.50;20.90;;;;;;;7.87;100.00;100036.20;105718;1257;59532;-76
2023/11/16 05:32:12;;;;;;;32.90;22.10;;;;;;;7.87;100.00;100040.02;105885;1255;72983;-76
2023/11/16 05:34:40;;;;;;;26.60;19.80;;;;;;;7.87;100.00;100040.21;105867;1256;63897;-75
2023/11/16 05:37:07;;;;;;;29.90;21.80;;;;;;;7.87;100.00;100040.92;105895;1256;72402;-76
2023/11/16 05:39:34;;;;;;;29.20;20.90;;;;;;;7.86;100.00;100043.04;105985;1258;59661;-75
2023/11/16 05:42:01;;;;;;;29.20;20.90;;;;;;;7.85;100.00;100040.68;105951;1257;59627;-76
2023/11/16 05:44:29;;;;;;;28.00;20.40;;;;;;;7.84;100.00;100038.67;105816;1251;73044;-76
2023/11/16 05:46:56;;;;;;;25.10;19.90;;;;;;;7.82;100.00;100040.14;106091;1257;62563;-77
2023/11/16 05:49:25;;;;;;;28.70;21.60;;;;;;;7.82;100.00;100041.73;105876;1256;71639;-75
2023/11/16 05:51:53;;;;;;;25.20;21.10;;;;;;;7.82;100.00;100049.89;105878;1257;59745;-77
2023/11/16 05:54:20;;;;;;;28.70;19.80;;;;;;;7.82;100.00;100053.06;106004;1251;59627;-77
2023/11/16 05:56:48;;;;;;;27.10;20.30;;;;;;;7.83;100.00;100054.92;105902;1257;71865;-77
2023/11/16 05:59:15;;;;;;;29.40;19.40;;;;;;;7.85;100.00;100059.30;105899;1255;63975;-76
2023/11/16 06:01:43;;;;;;;28.40;20.20;;;;;;;7.87;100.00;100061.96;105697;1256;72688;-77
2023/11/16 06:04:10;;;;;;;26.60;20.40;;;;;;;7.89;100.00;100058.40;106027;1257;61178;-77
2023/11/16 06:06:38;;;;;;;30.30;19.90;;;;;;;7.89;100.00;100057.49;105916;1257;60159;-77
2023/11/16 06:09:05;;;;;;;30.60;20.90;;;;;;;7.91;100.00;100054.98;105857;1257;73078;-76
2023/11/16 06:11:32;;;;;;;26.30;21.40;;;;;;;7.92;100.00;100055.24;105890;1251;62371;-76
2023/11/16 06:14:00;;;;;;;31.30;22.50;;;;;;;7.94;100.00;100059.67;106403;1254;72665;-76
2023/11/16 06:16:27;;;;;;;28.40;21.30;;;;;;;7.98;100.00;100061.33;106223;1257;61203;-77
2023/11/16 06:18:56;;;;;;;28.10;20.40;;;;;;;8.02;100.00;100059.73;105898;1257;61418;-75
2023/11/16 06:21:24;;;;;;;24.70;20.20;;;;;;;8.05;100.00;100061.64;105912;1257;72609;-75
2023/11/16 06:23:53;;;;;;;28.40;20.90;;;;;;;8.08;100.00;100061.79;106159;1251;62626;-77
2023/11/16 06:26:20;;;;;;;26.10;20.00;;;;;;;8.12;100.00;100067.33;106119;1253;72512;-77
2023/11/16 06:28:47;;;;;;;25.40;19.20;;;;;;;8.15;100.00;100074.09;106192;1254;59848;-76
2023/11/16 06:31:16;;;;;;;22.00;18.90;;;;;;;8.19;100.00;100070.89;106082;1248;60369;-77
2023/11/16 06:33:43;;;;;;;23.70;18.40;;;;;;;8.24;100.00;100066.81;106256;1248;72884;-76
2023/11/16 06:36:10;;;;;;;20.90;17.00;;;;;;;8.28;100.00;100065.49;106233;1253;63961;-76
2023/11/16 06:38:38;;;;;;;21.70;16.90;;;;;;;8.34;100.00;100065.70;106225;1248;72507;-78
2023/11/16 06:41:06;;;;;;;21.50;17.10;;;;;;;8.39;100.00;100066.92;106290;1252;61088;-78
2023/11/16 06:43:33;;;;;;;25.00;16.80;;;;;;;8.45;100.00;100062.27;106195;1254;60363;-78
2023/11/16 06:46:02;;;;;;;20.60;17.70;;;;;;;8.49;100.00;100064.63;106203;1252;73081;-76
2023/11/16 06:48:30;;;;;;;19.40;15.00;;;;;;;8.54;100.00;100073.23;106278;1253;63928;-78
2023/11/16 06:50:59;;;;;;;21.80;15.70;;;;;;;8.59;100.00;100077.12;106270;1253;72636;-75
2023/11/16 06:53:26;;;;;;;23.40;16.90;;;;;;;8.63;100.00;100081.58;106262;1261;61030;-76
2023/11/16 06:55:53;;;;;;;27.00;16.70;;;;;;;8.68;100.00;100081.63;106145;1254;59614;-75
2023/11/16 06:58:22;;;;;;;17.70;15.00;;;;;;;8.73;100.00;100084.48;106127;1253;73135;-78
2023/11/16 07:00:51;;;;;;;23.80;15.90;;;;;;;8.78;100.00;100081.34;105976;1248;62370;-78
2023/11/16 07:03:18;;;;;;;22.90;15.30;;;;;;;8.84;100.00;100090.07;106235;1254;71666;-78
2023/11/16 07:05:45;;;;;;;20.90;16.00;;;;;;;8.89;100.00;100091.84;106220;1253;61520;-78
2023/11/16 07:08:12;;;;;;;20.30;14.60;;;;;;;8.91;100.00;100092.92;106161;1252;60527;-74
2023/11/16 07:10:39;;;;;;;23.30;17.50;;;;;;;8.92;100.00;100092.85;106157;1253;73481;-78
2023/11/16 07:13:07;;;;;;;22.70;16.40;;;;;;;8.92;100.00;100095.29;106164;1253;62406;-78
2023/11/16 07:15:34;;;;;;;21.50;16.80;;;;;;;8.91;100.00;100099.92;106296;1252;72700;-77
2023/11/16 07:18:04;;;;;;;24.50;17.10;;;;;;;8.87;100.00;100098.78;106194;1253;60996;-76
2023/11/16 07:20:31;;;;;;;20.60;15.90;;;;;;;8.86;100.00;100098.45;106251;1250;59531;-77
2023/11/16 07:22:58;;;;;;;25.00;17.10;;;;;;;8.87;100.00;100099.44;106082;1254;73128;-78
2023/11/16 07:25:27;;;;;;;22.10;16.50;;;;;;;8.87;100.00;100093.86;106307;1253;64957;-78
2023/11/16 07:27:54;;;;;;;26.60;17.80;;;;;;;8.91;100.00;100099.73;106213;1248;72609;-77
2023/11/16 07:30:21;;;;;;;23.30;16.50;;;;;;;8.92;100.00;100098.64;105890;1248;61235;-74
2023/11/16 07:32:48;;;;;;;24.00;18.10;;;;;;;8.94;100.00;100104.25;106167;1254;60335;-76
2023/11/16 07:35:16;;;;;;;23.00;16.00;;;;;;;8.97;100.00;100101.82;106249;1253;72992;-77
2023/11/16 07:37:47;;;;;;;21.80;17.90;;;;;;;8.99;100.00;100106.19;106222;1248;63388;-77
2023/11/16 07:40:15;;;;;;;21.00;16.60;;;;;;;8.99;100.00;100104.65;106176;1253;72466;-78
2023/11/16 07:42:42;;;;;;;22.60;15.20;;;;;;;8.98;100.00;100105.45;106173;1254;62050;-78
2023/11/16 07:45:11;;;;;;;26.80;16.70;;;;;;;8.96;100.00;100109.88;106213;1253;60310;-78
2023/11/16 07:47:42;;;;;;;23.10;18.20;;;;;;;8.96;100.00;100109.57;105993;1247;72699;-77
2023/11/16 07:50:12;;;;;;;25.30;17.60;;;;;;;8.95;100.00;100110.46;106261;1252;63700;-77
2023/11/16 07:52:43;;;;;;;28.40;17.00;;;;;;;8.97;100.00;100109.12;106254;1252;72715;-78
2023/11/16 07:55:18;;;;;;;29.60;18.30;;;;;;;9.04;100.00;100106.94;106231;1252;60481;-77
2023/11/16 07:57:47;;;;;;;23.40;16.80;;;;;;;9.12;100.00;100103.66;106189;1254;59711;-77
2023/11/16 08:00:22;;;;;;;21.70;16.80;;;;;;;9.21;100.00;100103.08;106227;1254;73115;-78
2023/11/16 08:05:43;;;;;;;24.00;17.30;;;;;;;9.38;100.00;100103.61;106209;1248;72702;-79
2023/11/16 08:08:13;;;;;;;24.20;17.00;;;;;;;9.42;100.00;100101.08;106230;1253;62189;-78
2023/11/16 08:10:42;;;;;;;19.20;15.50;;;;;;;9.46;100.00;100106.55;106153;1254;60109;-79
2023/11/16 08:13:10;;;;;;;19.00;15.40;;;;;;;9.50;100.00;100105.27;106358;1248;72965;-79
2023/11/16 08:15:52;;;;;;;19.90;13.60;;;;;;;9.56;100.00;100104.73;106350;1252;63708;-75
2023/11/16 08:18:22;;;;;;;17.60;14.00;;;;;;;9.63;100.00;100104.98;106071;1247;72412;-80
2023/11/16 08:20:48;;;;;;;15.70;13.60;;;;;;;9.70;100.00;100107.48;106255;1253;63463;-78
2023/11/16 08:23:18;;;;;;;19.00;14.80;;;;;;;9.80;100.00;100105.95;106183;1253;60388;-77
2023/11/16 08:25:47;;;;;;;16.80;13.80;;;;;;;9.93;100.00;100101.27;106174;1253;72978;-78
2023/11/16 08:28:14;;;;;;;15.60;13.00;;;;;;;10.06;100.00;100099.02;106221;1255;63832;-76
2023/11/16 08:30:45;;;;;;;18.90;14.70;;;;;;;10.18;100.00;100102.62;106213;1248;72418;-76
2023/11/16 08:33:14;;;;;;;19.70;13.90;;;;;;;10.26;100.00;100102.45;106535;1253;62348;-78
2023/11/16 08:35:42;;;;;;;17.30;12.90;;;;;;;10.30;100.00;100106.02;106210;1248;60389;-78
2023/11/16 08:38:14;;;;;;;18.30;12.60;;;;;;;10.33;100.00;100106.70;106470;1253;73857;-80
2023/11/16 08:40:43;;;;;;;15.30;12.60;;;;;;;10.34;100.00;100103.15;106487;1248;65403;-78
2023/11/16 08:43:12;;;;;;;15.10;11.10;;;;;;;10.38;100.00;100102.85;106270;1253;72656;-78
2023/11/16 08:45:39;;;;;;;13.90;11.80;;;;;;;10.41;100.00;100097.95;106200;1254;62921;-80
2023/11/16 08:48:08;;;;;;;14.90;11.40;;;;;;;10.44;100.00;100100.37;106194;1248;60438;-79
2023/11/16 08:50:37;;;;;;;14.70;11.50;;;;;;;10.46;100.00;100098.98;106329;1248;75091;-81
2023/11/16 08:53:07;;;;;;;15.00;11.80;;;;;;;10.48;100.00;100098.73;106348;1248;63649;-79
2023/11/16 08:55:34;;;;;;;15.70;11.90;;;;;;;10.51;100.00;100093.65;106544;1248;73075;-80
2023/11/16 08:58:02;;;;;;;15.40;12.10;;;;;;;10.55;100.00;100091.02;108248;1251;60374;-80
2023/11/16 09:00:37;;;;;;;17.70;11.70;;;;;;;10.63;100.00;100089.44;107218;1251;60411;-79
2023/11/16 09:03:04;;;;;;;16.00;12.10;;;;;;;10.70;100.00;100086.00;106641;1251;73758;-78
2023/11/16 09:05:39;;;;;;;12.00;10.60;;;;;;;10.75;100.00;100083.40;106275;1254;63969;-77
2023/11/16 09:08:10;;;;;;;15.40;10.70;;;;;;;10.76;100.00;100081.02;106161;1248;72537;-80
2023/11/16 09:10:37;;;;;;;19.60;11.10;;;;;;;10.75;100.00;100080.41;106290;1251;61808;-79
2023/11/16 09:13:07;;;;;;;13.20;11.20;;;;;;;10.74;100.00;100079.81;106180;1248;60415;-80
2023/11/16 09:15:35;;;;;;;14.70;10.80;;;;;;;10.72;100.00;100083.27;106579;1248;72282;-78
2023/11/16 09:18:04;;;;;;;13.80;9.90;;;;;;;10.71;100.00;100083.48;107031;1253;64059;-78
2023/11/16 09:20:33;;;;;;;15.70;11.60;;;;;;;10.72;100.00;100082.88;106259;1248;72833;-78
2023/11/16 09:23:00;;;;;;;15.10;11.80;;;;;;;10.73;100.00;100081.91;106162;1254;62159;-80
2023/11/16 09:25:29;;;;;;;17.70;11.00;;;;;;;10.73;100.00;100084.07;106339;1248;60446;-80
2023/11/16 09:27:59;;;;;;;16.60;12.00;;;;;;;10.73;100.00;100076.53;106293;1254;74620;-81
2023/11/16 09:30:27;;;;;;;13.00;10.70;;;;;;;10.72;100.00;100079.73;106220;1253;63871;-78
2023/11/16 09:32:54;;;;;;;15.00;10.40;;;;;;;10.70;100.00;100076.77;106233;1248;72616;-78
2023/11/16 09:35:22;;;;;;;13.70;11.50;;;;;;;10.71;100.00;100075.63;106087;1254;62023;-77
2023/11/16 09:37:51;;;;;;;14.40;11.20;;;;;;;10.74;100.00;100078.77;106240;1248;60529;-77
2023/11/16 09:40:21;;;;;;;12.40;10.90;;;;;;;10.77;100.00;100077.84;106127;1254;74150;-77
2023/11/16 09:43:00;;;;;;;11.80;9.70;;;;;;;10.79;100.00;100069.30;106149;1248;64242;-76
2023/11/16 09:45:27;;;;;;;12.00;9.50;;;;;;;10.77;100.00;100067.30;106237;1247;72667;-77
2023/11/16 09:48:04;;;;;;;11.70;9.30;;;;;;;10.75;100.00;100071.35;106204;1254;62027;-78
2023/11/16 09:50:31;;;;;;;11.40;9.10;;;;;;;10.72;100.00;100068.40;106409;1248;60523;-77
2023/11/16 09:52:58;;;;;;;11.70;9.90;;;;;;;10.70;100.00;100069.56;106537;1253;75127;-78
2023/11/16 09:55:30;;;;;;;13.20;10.20;;;;;;;10.70;100.00;100065.23;106268;1252;63872;-77
2023/11/16 09:58:04;;;;;;;12.40;9.40;;;;;;;10.71;100.00;100067.74;106172;1251;70786;-77
2023/11/16 10:00:34;;;;;;;12.10;9.30;;;;;;;10.74;100.00;100066.17;106293;1248;60901;-76
2023/11/16 10:03:05;;;;;;;12.20;9.60;;;;;;;10.75;100.00;100062.93;106255;1253;60318;-76
2023/11/16 10:05:36;;;;;;;11.30;8.60;;;;;;;10.75;100.00;100063.10;105959;1248;73904;-76
2023/11/16 10:08:08;;;;;;;11.90;9.70;;;;;;;10.74;100.00;100062.27;106218;1252;61487;-77
2023/11/16 10:10:36;;;;;;;10.90;8.80;;;;;;;10.73;100.00;100063.60;106218;1254;71636;-78
2023/11/16 10:13:04;;;;;;;13.10;10.20;;;;;;;10.70;100.00;100063.59;106184;1253;63148;-78
2023/11/16 10:15:31;;;;;;;11.50;10.20;;;;;;;10.70;100.00;100063.45;106309;1248;60503;-78
2023/11/16 10:18:01;;;;;;;14.90;11.70;;;;;;;10.70;100.00;100063.83;106254;1254;74044;-79
2023/11/16 10:20:29;;;;;;;12.40;10.20;;;;;;;10.69;100.00;100065.94;106250;1254;63954;-78
2023/11/16 10:22:57;;;;;;;15.00;11.30;;;;;;;10.69;100.00;100063.34;106278;1248;72419;-79
2023/11/16 10:25:24;;;;;;;16.30;11.80;;;;;;;10.67;100.00;100066.10;106186;1253;61598;-79
2023/11/16 10:27:51;;;;;;;16.10;11.70;;;;;;;10.64;100.00;100067.88;106217;1248;60408;-77
2023/11/16 10:30:18;;;;;;;15.10;11.80;;;;;;;10.63;100.00;100068.15;106230;1252;73705;-77
2023/11/16 10:32:51;;;;;;;14.50;10.70;;;;;;;10.61;100.00;100068.13;106316;1253;64275;-78
2023/11/16 10:35:23;;;;;;;17.50;11.90;;;;;;;10.58;100.00;100065.49;106304;1248;72659;-76
2023/11/16 10:37:50;;;;;;;12.00;10.60;;;;;;;10.55;100.00;100065.70;106645;1248;60469;-75
2023/11/16 10:40:17;;;;;;;12.60;10.80;;;;;;;10.52;100.00;100067.46;106972;1248;60410;-75
2023/11/16 10:42:45;;;;;;;12.80;10.90;;;;;;;10.50;100.00;100064.83;106704;1248;72573;-77
2023/11/16 10:45:14;;;;;;;14.40;10.70;;;;;;;10.47;100.00;100065.41;106306;1253;63942;-77
2023/11/16 10:47:45;;;;;;;14.40;11.50;;;;;;;10.44;100.00;100068.90;106007;1251;71314;-76
2023/11/16 10:50:16;;;;;;;15.50;11.40;;;;;;;10.43;100.00;100064.27;106289;1253;61739;-77
2023/11/16 10:52:44;;;;;;;13.10;11.50;;;;;;;10.43;100.00;100064.30;106078;1254;60415;-77
2023/11/16 10:55:21;;;;;;;12.80;10.60;;;;;;;10.38;100.00;100063.73;106268;1252;73021;-78
2023/11/16 10:57:51;;;;;;;15.40;11.20;;;;;;;10.31;100.00;100067.15;106310;1248;62336;-79
2023/11/16 11:00:18;;;;;;;18.40;11.70;;;;;;;10.25;100.00;100067.00;106045;1254;72334;-78
2023/11/16 11:02:46;;;;;;;18.60;13.70;;;;;;;10.23;100.00;100071.03;106232;1252;61929;-77
2023/11/16 11:05:17;;;;;;;13.00;11.40;;;;;;;10.21;100.00;100062.95;106216;1253;60325;-78
2023/11/16 11:07:53;;;;;;;13.40;11.00;;;;;;;10.19;100.00;100066.04;106249;1248;73899;-78
2023/11/16 11:10:27;;;;;;;13.90;10.40;;;;;;;10.19;100.00;100065.67;106141;1254;65045;-79
2023/11/16 11:12:55;;;;;;;12.10;10.30;;;;;;;10.17;100.00;100067.90;106202;1248;72832;-79